sensor_id;sensor_type;location;lat;lon;timestamp;P1;durP1;ratioP1;P2;durP2;ratioP2
40176;SDS011;31511;46.176;9.874;2022-08-01T00:01:55;1.65;;;0.90;;
40176;SDS011;31511;46.176;9.874;2022-08-01T00:04:40;0.60;;;0.57;;
40176;SDS011;31511;46.176;9.874;2022-08-01T00:07:26;0.70;;;0.70;;
40176;SDS011;31511;46.176;9.874;2022-08-01T00:10:13;3.85;;;0.90;;
40176;SDS011;31511;46.176;9.874;2022-08-01T00:12:58;2.63;;;1.08;;
40176;SDS011;31511;46.176;9.874;2022-08-01T00:15:43;1.98;;;1.20;;
40176;SDS011;31511;46.176;9.874;2022-08-01T00:18:29;2.00;;;1.00;;
40176;SDS011;31511;46.176;9.874;2022-08-01T00:21:14;1.65;;;0.93;;
40176;SDS011;31511;46.176;9.874;2022-08-01T00:23:59;1.17;;;0.70;;
40176;SDS011;31511;46.176;9.874;2022-08-01T00:26:43;1.25;;;0.75;;
40176;SDS011;31511;46.176;9.874;2022-08-01T00:29:30;1.40;;;0.90;;
40176;SDS011;31511;46.176;9.874;2022-08-01T00:32:14;1.30;;;0.77;;
40176;SDS011;31511;46.176;9.874;2022-08-01T00:35:00;1.35;;;0.70;;
40176;SDS011;31511;46.176;9.874;2022-08-01T00:37:44;1.38;;;0.90;;
40176;SDS011;31511;46.176;9.874;2022-08-01T00:40:30;4.43;;;0.85;;
40176;SDS011;31511;46.176;9.874;2022-08-01T00:43:15;1.35;;;0.80;;
40176;SDS011;31511;46.176;9.874;2022-08-01T00:46:00;1.90;;;1.02;;
40176;SDS011;31511;46.176;9.874;2022-08-01T00:48:44;0.82;;;0.80;;
40176;SDS011;31511;46.176;9.874;2022-08-01T00:51:30;0.98;;;0.77;;
40176;SDS011;31511;46.176;9.874;2022-08-01T00:54:15;1.33;;;1.23;;
40176;SDS011;31511;46.176;9.874;2022-08-01T00:57:00;2.70;;;0.80;;
40176;SDS011;31511;46.176;9.874;2022-08-01T00:59:45;1.25;;;0.95;;
40176;SDS011;31511;46.176;9.874;2022-08-01T01:02:29;0.88;;;0.73;;
40176;SDS011;31511;46.176;9.874;2022-08-01T01:05:14;1.65;;;1.02;;
40176;SDS011;31511;46.176;9.874;2022-08-01T01:08:02;1.35;;;0.75;;
40176;SDS011;31511;46.176;9.874;2022-08-01T01:10:48;1.10;;;0.90;;
40176;SDS011;31511;46.176;9.874;2022-08-01T01:13:43;4.50;;;0.88;;
40176;SDS011;31511;46.176;9.874;2022-08-01T01:16:30;1.92;;;0.98;;
40176;SDS011;31511;46.176;9.874;2022-08-01T01:19:16;1.08;;;0.98;;
40176;SDS011;31511;46.176;9.874;2022-08-01T01:30:32;4.63;;;1.00;;
40176;SDS011;31511;46.176;9.874;2022-08-01T01:33:17;1.00;;;0.90;;
40176;SDS011;31511;46.176;9.874;2022-08-01T01:36:05;2.80;;;1.00;;
40176;SDS011;31511;46.176;9.874;2022-08-01T01:38:53;1.02;;;0.90;;
40176;SDS011;31511;46.176;9.874;2022-08-01T01:41:38;0.98;;;0.82;;
40176;SDS011;31511;46.176;9.874;2022-08-01T01:44:26;0.70;;;0.70;;
40176;SDS011;31511;46.176;9.874;2022-08-01T01:47:13;1.75;;;0.80;;
40176;SDS011;31511;46.176;9.874;2022-08-01T01:50:01;1.50;;;0.90;;
40176;SDS011;31511;46.176;9.874;2022-08-01T01:52:46;2.88;;;0.93;;
40176;SDS011;31511;46.176;9.874;2022-08-01T01:55:32;1.67;;;0.90;;
40176;SDS011;31511;46.176;9.874;2022-08-01T01:58:18;1.77;;;0.75;;
40176;SDS011;31511;46.176;9.874;2022-08-01T02:01:05;1.77;;;0.90;;
40176;SDS011;31511;46.176;9.874;2022-08-01T02:03:52;1.38;;;0.90;;
40176;SDS011;31511;46.176;9.874;2022-08-01T02:06:38;1.08;;;0.90;;
40176;SDS011;31511;46.176;9.874;2022-08-01T02:09:25;2.13;;;1.10;;
40176;SDS011;31511;46.176;9.874;2022-08-01T02:12:12;0.65;;;0.60;;
40176;SDS011;31511;46.176;9.874;2022-08-01T02:14:59;2.53;;;1.13;;
40176;SDS011;31511;46.176;9.874;2022-08-01T02:17:46;1.80;;;1.00;;
40176;SDS011;31511;46.176;9.874;2022-08-01T02:20:32;2.35;;;1.17;;
40176;SDS011;31511;46.176;9.874;2022-08-01T02:23:20;1.55;;;1.02;;
40176;SDS011;31511;46.176;9.874;2022-08-01T02:26:07;1.17;;;0.85;;
40176;SDS011;31511;46.176;9.874;2022-08-01T02:28:59;2.33;;;1.00;;
40176;SDS011;31511;46.176;9.874;2022-08-01T02:31:45;1.25;;;0.80;;
40176;SDS011;31511;46.176;9.874;2022-08-01T02:34:30;1.63;;;0.90;;
40176;SDS011;31511;46.176;9.874;2022-08-01T02:37:16;1.30;;;0.88;;
40176;SDS011;31511;46.176;9.874;2022-08-01T02:40:02;1.98;;;0.70;;
40176;SDS011;31511;46.176;9.874;2022-08-01T02:42:50;2.22;;;0.65;;
40176;SDS011;31511;46.176;9.874;2022-08-01T02:45:36;0.80;;;0.60;;
40176;SDS011;31511;46.176;9.874;2022-08-01T02:48:24;1.00;;;0.80;;
40176;SDS011;31511;46.176;9.874;2022-08-01T02:51:11;2.65;;;1.00;;
40176;SDS011;31511;46.176;9.874;2022-08-01T02:53:57;0.65;;;0.65;;
40176;SDS011;31511;46.176;9.874;2022-08-01T02:56:43;0.85;;;0.75;;
40176;SDS011;31511;46.176;9.874;2022-08-01T02:59:29;2.40;;;0.70;;
40176;SDS011;31511;46.176;9.874;2022-08-01T03:02:16;1.13;;;0.90;;
40176;SDS011;31511;46.176;9.874;2022-08-01T03:05:01;5.60;;;2.33;;
40176;SDS011;31511;46.176;9.874;2022-08-01T03:07:47;8.60;;;2.58;;
40176;SDS011;31511;46.176;9.874;2022-08-01T03:10:32;12.07;;;3.47;;
40176;SDS011;31511;46.176;9.874;2022-08-01T03:13:17;5.65;;;1.75;;
40176;SDS011;31511;46.176;9.874;2022-08-01T03:16:03;6.70;;;1.08;;
40176;SDS011;31511;46.176;9.874;2022-08-01T03:18:48;6.40;;;1.23;;
40176;SDS011;31511;46.176;9.874;2022-08-01T03:21:34;1.88;;;1.35;;
40176;SDS011;31511;46.176;9.874;2022-08-01T03:24:22;1.33;;;0.80;;
40176;SDS011;31511;46.176;9.874;2022-08-01T03:27:09;5.45;;;0.82;;
40176;SDS011;31511;46.176;9.874;2022-08-01T03:29:55;0.93;;;0.80;;
40176;SDS011;31511;46.176;9.874;2022-08-01T03:32:40;0.90;;;0.70;;
40176;SDS011;31511;46.176;9.874;2022-08-01T03:35:28;2.55;;;0.98;;
40176;SDS011;31511;46.176;9.874;2022-08-01T03:38:15;1.30;;;0.88;;
40176;SDS011;31511;46.176;9.874;2022-08-01T03:41:07;0.73;;;0.70;;
40176;SDS011;31511;46.176;9.874;2022-08-01T03:43:57;1.05;;;0.70;;
40176;SDS011;31511;46.176;9.874;2022-08-01T03:46:44;2.20;;;1.13;;
40176;SDS011;31511;46.176;9.874;2022-08-01T03:49:31;1.48;;;1.02;;
40176;SDS011;31511;46.176;9.874;2022-08-01T03:52:17;1.67;;;1.00;;
40176;SDS011;31511;46.176;9.874;2022-08-01T03:55:03;2.03;;;0.85;;
40176;SDS011;31511;46.176;9.874;2022-08-01T03:57:50;1.02;;;0.90;;
40176;SDS011;31511;46.176;9.874;2022-08-01T04:00:36;0.77;;;0.77;;
40176;SDS011;31511;46.176;9.874;2022-08-01T04:03:24;3.38;;;2.00;;
40176;SDS011;31511;46.176;9.874;2022-08-01T04:06:09;3.58;;;2.60;;
40176;SDS011;31511;46.176;9.874;2022-08-01T04:08:54;3.42;;;2.25;;
40176;SDS011;31511;46.176;9.874;2022-08-01T04:11:38;2.75;;;1.75;;
40176;SDS011;31511;46.176;9.874;2022-08-01T04:14:28;1.77;;;1.10;;
40176;SDS011;31511;46.176;9.874;2022-08-01T04:17:17;1.58;;;1.10;;
40176;SDS011;31511;46.176;9.874;2022-08-01T04:20:02;1.38;;;0.80;;
40176;SDS011;31511;46.176;9.874;2022-08-01T04:22:47;6.15;;;1.30;;
40176;SDS011;31511;46.176;9.874;2022-08-01T04:25:33;4.60;;;1.10;;
40176;SDS011;31511;46.176;9.874;2022-08-01T04:28:18;1.58;;;1.10;;
40176;SDS011;31511;46.176;9.874;2022-08-01T04:31:06;4.00;;;1.35;;
40176;SDS011;31511;46.176;9.874;2022-08-01T04:33:55;1.88;;;1.38;;
40176;SDS011;31511;46.176;9.874;2022-08-01T04:36:40;4.68;;;1.60;;
40176;SDS011;31511;46.176;9.874;2022-08-01T04:39:28;2.03;;;1.20;;
40176;SDS011;31511;46.176;9.874;2022-08-01T04:42:15;2.88;;;1.30;;
40176;SDS011;31511;46.176;9.874;2022-08-01T04:45:00;1.45;;;1.27;;
40176;SDS011;31511;46.176;9.874;2022-08-01T04:47:45;2.78;;;1.02;;
40176;SDS011;31511;46.176;9.874;2022-08-01T04:50:31;5.07;;;1.35;;
40176;SDS011;31511;46.176;9.874;2022-08-01T04:53:16;1.60;;;0.90;;
40176;SDS011;31511;46.176;9.874;2022-08-01T04:56:03;1.23;;;1.00;;
40176;SDS011;31511;46.176;9.874;2022-08-01T04:58:47;1.90;;;1.17;;
40176;SDS011;31511;46.176;9.874;2022-08-01T05:01:52;3.78;;;1.27;;
40176;SDS011;31511;46.176;9.874;2022-08-01T05:04:37;1.27;;;0.80;;
40176;SDS011;31511;46.176;9.874;2022-08-01T05:07:24;3.05;;;1.10;;
40176;SDS011;31511;46.176;9.874;2022-08-01T05:10:11;1.63;;;1.10;;
40176;SDS011;31511;46.176;9.874;2022-08-01T05:12:57;3.17;;;0.95;;
40176;SDS011;31511;46.176;9.874;2022-08-01T05:15:41;1.33;;;0.93;;
40176;SDS011;31511;46.176;9.874;2022-08-01T05:18:28;3.22;;;0.95;;
40176;SDS011;31511;46.176;9.874;2022-08-01T05:21:16;3.63;;;1.13;;
40176;SDS011;31511;46.176;9.874;2022-08-01T05:24:01;2.15;;;0.90;;
40176;SDS011;31511;46.176;9.874;2022-08-01T05:26:45;1.52;;;0.90;;
40176;SDS011;31511;46.176;9.874;2022-08-01T05:29:30;3.25;;;1.20;;
40176;SDS011;31511;46.176;9.874;2022-08-01T05:32:15;3.20;;;0.90;;
40176;SDS011;31511;46.176;9.874;2022-08-01T05:35:00;1.20;;;0.90;;
40176;SDS011;31511;46.176;9.874;2022-08-01T05:37:45;2.45;;;1.00;;
40176;SDS011;31511;46.176;9.874;2022-08-01T05:40:30;2.17;;;1.00;;
40176;SDS011;31511;46.176;9.874;2022-08-01T05:43:14;1.85;;;1.00;;
40176;SDS011;31511;46.176;9.874;2022-08-01T05:46:00;7.07;;;1.13;;
40176;SDS011;31511;46.176;9.874;2022-08-01T05:48:45;1.27;;;0.60;;
40176;SDS011;31511;46.176;9.874;2022-08-01T05:51:31;2.03;;;1.20;;
40176;SDS011;31511;46.176;9.874;2022-08-01T05:54:16;4.88;;;1.08;;
40176;SDS011;31511;46.176;9.874;2022-08-01T05:57:01;5.07;;;1.63;;
40176;SDS011;31511;46.176;9.874;2022-08-01T05:59:46;5.75;;;1.23;;
40176;SDS011;31511;46.176;9.874;2022-08-01T06:02:30;4.28;;;1.33;;
40176;SDS011;31511;46.176;9.874;2022-08-01T06:05:15;1.77;;;0.95;;
40176;SDS011;31511;46.176;9.874;2022-08-01T06:08:00;6.05;;;1.20;;
40176;SDS011;31511;46.176;9.874;2022-08-01T06:10:44;2.92;;;1.15;;
40176;SDS011;31511;46.176;9.874;2022-08-01T06:13:30;2.28;;;1.40;;
40176;SDS011;31511;46.176;9.874;2022-08-01T06:16:16;3.78;;;1.10;;
40176;SDS011;31511;46.176;9.874;2022-08-01T06:19:01;1.33;;;1.23;;
40176;SDS011;31511;46.176;9.874;2022-08-01T06:21:45;1.77;;;1.20;;
40176;SDS011;31511;46.176;9.874;2022-08-01T06:24:30;1.52;;;1.13;;
40176;SDS011;31511;46.176;9.874;2022-08-01T06:27:15;3.35;;;0.75;;
40176;SDS011;31511;46.176;9.874;2022-08-01T06:30:00;2.80;;;1.25;;
40176;SDS011;31511;46.176;9.874;2022-08-01T06:32:45;2.00;;;1.15;;
40176;SDS011;31511;46.176;9.874;2022-08-01T06:35:31;1.27;;;0.93;;
40176;SDS011;31511;46.176;9.874;2022-08-01T06:38:16;3.47;;;0.90;;
40176;SDS011;31511;46.176;9.874;2022-08-01T06:41:01;1.60;;;1.20;;
40176;SDS011;31511;46.176;9.874;2022-08-01T06:43:46;2.03;;;0.93;;
40176;SDS011;31511;46.176;9.874;2022-08-01T06:46:31;2.15;;;1.20;;
40176;SDS011;31511;46.176;9.874;2022-08-01T06:49:16;2.75;;;1.35;;
40176;SDS011;31511;46.176;9.874;2022-08-01T06:52:00;3.13;;;1.40;;
40176;SDS011;31511;46.176;9.874;2022-08-01T06:54:46;3.38;;;1.10;;
40176;SDS011;31511;46.176;9.874;2022-08-01T06:57:30;1.95;;;1.25;;
40176;SDS011;31511;46.176;9.874;2022-08-01T07:00:16;1.35;;;1.10;;
40176;SDS011;31511;46.176;9.874;2022-08-01T07:03:04;5.25;;;1.30;;
40176;SDS011;31511;46.176;9.874;2022-08-01T07:05:48;2.55;;;1.42;;
40176;SDS011;31511;46.176;9.874;2022-08-01T07:08:33;2.28;;;1.10;;
40176;SDS011;31511;46.176;9.874;2022-08-01T07:11:18;3.20;;;1.30;;
40176;SDS011;31511;46.176;9.874;2022-08-01T07:14:04;3.17;;;1.20;;
40176;SDS011;31511;46.176;9.874;2022-08-01T07:16:48;6.15;;;1.45;;
40176;SDS011;31511;46.176;9.874;2022-08-01T07:19:34;1.52;;;1.20;;
40176;SDS011;31511;46.176;9.874;2022-08-01T07:22:18;3.65;;;1.50;;
40176;SDS011;31511;46.176;9.874;2022-08-01T07:25:05;1.40;;;1.02;;
40176;SDS011;31511;46.176;9.874;2022-08-01T07:27:51;2.28;;;1.00;;
40176;SDS011;31511;46.176;9.874;2022-08-01T07:30:36;1.48;;;1.00;;
40176;SDS011;31511;46.176;9.874;2022-08-01T07:33:22;1.75;;;1.40;;
40176;SDS011;31511;46.176;9.874;2022-08-01T07:36:08;1.25;;;0.90;;
40176;SDS011;31511;46.176;9.874;2022-08-01T07:38:54;4.07;;;1.17;;
40176;SDS011;31511;46.176;9.874;2022-08-01T07:41:39;4.70;;;1.38;;
40176;SDS011;31511;46.176;9.874;2022-08-01T07:44:25;1.80;;;1.20;;
40176;SDS011;31511;46.176;9.874;2022-08-01T07:47:12;3.10;;;1.17;;
40176;SDS011;31511;46.176;9.874;2022-08-01T07:49:59;1.45;;;1.00;;
40176;SDS011;31511;46.176;9.874;2022-08-01T07:52:44;1.92;;;1.25;;
40176;SDS011;31511;46.176;9.874;2022-08-01T07:55:29;4.50;;;1.25;;
40176;SDS011;31511;46.176;9.874;2022-08-01T07:58:15;1.55;;;1.08;;
40176;SDS011;31511;46.176;9.874;2022-08-01T08:01:01;1.40;;;1.00;;
40176;SDS011;31511;46.176;9.874;2022-08-01T08:03:45;3.53;;;1.00;;
40176;SDS011;31511;46.176;9.874;2022-08-01T08:06:30;2.47;;;1.00;;
40176;SDS011;31511;46.176;9.874;2022-08-01T08:09:15;1.85;;;0.90;;
40176;SDS011;31511;46.176;9.874;2022-08-01T08:12:00;2.75;;;1.20;;
40176;SDS011;31511;46.176;9.874;2022-08-01T08:14:45;2.35;;;1.10;;
40176;SDS011;31511;46.176;9.874;2022-08-01T08:17:30;1.48;;;0.82;;
40176;SDS011;31511;46.176;9.874;2022-08-01T08:20:15;5.38;;;0.90;;
40176;SDS011;31511;46.176;9.874;2022-08-01T08:23:00;1.45;;;0.90;;
40176;SDS011;31511;46.176;9.874;2022-08-01T08:25:45;1.63;;;1.02;;
40176;SDS011;31511;46.176;9.874;2022-08-01T08:28:31;2.20;;;1.20;;
40176;SDS011;31511;46.176;9.874;2022-08-01T08:31:16;3.47;;;1.30;;
40176;SDS011;31511;46.176;9.874;2022-08-01T08:34:01;2.25;;;1.15;;
40176;SDS011;31511;46.176;9.874;2022-08-01T08:36:45;2.25;;;1.00;;
40176;SDS011;31511;46.176;9.874;2022-08-01T08:39:30;1.83;;;1.30;;
40176;SDS011;31511;46.176;9.874;2022-08-01T08:42:15;4.10;;;1.27;;
40176;SDS011;31511;46.176;9.874;2022-08-01T08:45:01;1.58;;;1.10;;
40176;SDS011;31511;46.176;9.874;2022-08-01T08:47:45;1.55;;;1.10;;
40176;SDS011;31511;46.176;9.874;2022-08-01T08:50:32;1.23;;;0.90;;
40176;SDS011;31511;46.176;9.874;2022-08-01T08:53:16;1.20;;;1.08;;
40176;SDS011;31511;46.176;9.874;2022-08-01T08:56:05;3.50;;;1.65;;
40176;SDS011;31511;46.176;9.874;2022-08-01T08:58:52;2.47;;;1.10;;
40176;SDS011;31511;46.176;9.874;2022-08-01T09:01:37;3.60;;;1.08;;
40176;SDS011;31511;46.176;9.874;2022-08-01T09:04:23;1.02;;;0.82;;
40176;SDS011;31511;46.176;9.874;2022-08-01T09:07:10;1.48;;;0.80;;
40176;SDS011;31511;46.176;9.874;2022-08-01T09:09:55;2.00;;;0.85;;
40176;SDS011;31511;46.176;9.874;2022-08-01T09:12:40;1.45;;;1.10;;
40176;SDS011;31511;46.176;9.874;2022-08-01T09:18:33;0.95;;;0.88;;
40176;SDS011;31511;46.176;9.874;2022-08-01T09:21:20;1.60;;;0.80;;
40176;SDS011;31511;46.176;9.874;2022-08-01T09:24:14;1.80;;;1.02;;
40176;SDS011;31511;46.176;9.874;2022-08-01T09:27:01;1.30;;;1.23;;
40176;SDS011;31511;46.176;9.874;2022-08-01T09:30:07;2.47;;;0.73;;
40176;SDS011;31511;46.176;9.874;2022-08-01T09:32:56;5.07;;;1.15;;
40176;SDS011;31511;46.176;9.874;2022-08-01T09:35:42;0.98;;;0.80;;
40176;SDS011;31511;46.176;9.874;2022-08-01T09:38:30;2.15;;;0.80;;
40176;SDS011;31511;46.176;9.874;2022-08-01T09:41:15;1.02;;;0.82;;
40176;SDS011;31511;46.176;9.874;2022-08-01T09:43:59;1.60;;;0.70;;
40176;SDS011;31511;46.176;9.874;2022-08-01T09:46:51;0.60;;;0.60;;
40176;SDS011;31511;46.176;9.874;2022-08-01T09:49:36;0.98;;;0.60;;
40176;SDS011;31511;46.176;9.874;2022-08-01T09:52:24;2.50;;;0.85;;
40176;SDS011;31511;46.176;9.874;2022-08-01T09:55:11;2.92;;;0.95;;
40176;SDS011;31511;46.176;9.874;2022-08-01T09:57:56;1.23;;;0.70;;
40176;SDS011;31511;46.176;9.874;2022-08-01T10:00:45;1.45;;;0.90;;
40176;SDS011;31511;46.176;9.874;2022-08-01T10:03:41;1.17;;;0.60;;
40176;SDS011;31511;46.176;9.874;2022-08-01T10:06:28;1.20;;;0.70;;
40176;SDS011;31511;46.176;9.874;2022-08-01T10:09:14;1.13;;;0.73;;
40176;SDS011;31511;46.176;9.874;2022-08-01T10:12:01;4.30;;;0.93;;
40176;SDS011;31511;46.176;9.874;2022-08-01T10:14:47;1.33;;;0.70;;
40176;SDS011;31511;46.176;9.874;2022-08-01T10:17:38;1.27;;;0.60;;
40176;SDS011;31511;46.176;9.874;2022-08-01T10:20:29;1.08;;;0.85;;
40176;SDS011;31511;46.176;9.874;2022-08-01T10:23:15;3.42;;;0.90;;
40176;SDS011;31511;46.176;9.874;2022-08-01T10:26:00;0.90;;;0.73;;
40176;SDS011;31511;46.176;9.874;2022-08-01T10:28:45;0.93;;;0.60;;
40176;SDS011;31511;46.176;9.874;2022-08-01T10:31:32;1.45;;;0.82;;
40176;SDS011;31511;46.176;9.874;2022-08-01T10:34:17;1.65;;;0.90;;
40176;SDS011;31511;46.176;9.874;2022-08-01T10:37:04;0.90;;;0.55;;
40176;SDS011;31511;46.176;9.874;2022-08-01T10:39:50;0.95;;;0.47;;
40176;SDS011;31511;46.176;9.874;2022-08-01T10:42:35;1.20;;;0.60;;
40176;SDS011;31511;46.176;9.874;2022-08-01T10:45:20;1.83;;;0.50;;
40176;SDS011;31511;46.176;9.874;2022-08-01T10:48:28;0.70;;;0.50;;
40176;SDS011;31511;46.176;9.874;2022-08-01T10:51:15;1.73;;;0.50;;
40176;SDS011;31511;46.176;9.874;2022-08-01T10:54:07;0.50;;;0.50;;
40176;SDS011;31511;46.176;9.874;2022-08-01T10:56:53;3.10;;;0.40;;
40176;SDS011;31511;46.176;9.874;2022-08-01T10:59:49;3.08;;;0.85;;
40176;SDS011;31511;46.176;9.874;2022-08-01T11:02:34;0.70;;;0.60;;
40176;SDS011;31511;46.176;9.874;2022-08-01T11:05:24;0.73;;;0.50;;
40176;SDS011;31511;46.176;9.874;2022-08-01T11:08:10;1.95;;;0.60;;
40176;SDS011;31511;46.176;9.874;2022-08-01T11:11:02;2.70;;;0.60;;
40176;SDS011;31511;46.176;9.874;2022-08-01T11:16:34;0.75;;;0.52;;
40176;SDS011;31511;46.176;9.874;2022-08-01T11:19:20;0.90;;;0.70;;
40176;SDS011;31511;46.176;9.874;2022-08-01T11:22:06;1.52;;;0.70;;
40176;SDS011;31511;46.176;9.874;2022-08-01T11:24:54;0.82;;;0.65;;
40176;SDS011;31511;46.176;9.874;2022-08-01T11:27:40;1.02;;;0.63;;
40176;SDS011;31511;46.176;9.874;2022-08-01T11:30:24;2.20;;;0.70;;
40176;SDS011;31511;46.176;9.874;2022-08-01T11:33:09;1.55;;;0.75;;
40176;SDS011;31511;46.176;9.874;2022-08-01T11:41:48;3.53;;;0.80;;
40176;SDS011;31511;46.176;9.874;2022-08-01T11:44:33;1.42;;;0.55;;
40176;SDS011;31511;46.176;9.874;2022-08-01T11:47:45;1.33;;;0.70;;
40176;SDS011;31511;46.176;9.874;2022-08-01T11:50:36;3.95;;;0.55;;
40176;SDS011;31511;46.176;9.874;2022-08-01T11:53:22;0.85;;;0.65;;
40176;SDS011;31511;46.176;9.874;2022-08-01T11:56:08;0.63;;;0.32;;
40176;SDS011;31511;46.176;9.874;2022-08-01T11:58:58;0.88;;;0.57;;
40176;SDS011;31511;46.176;9.874;2022-08-01T12:01:43;2.10;;;0.50;;
40176;SDS011;31511;46.176;9.874;2022-08-01T12:04:47;0.70;;;0.40;;
40176;SDS011;31511;46.176;9.874;2022-08-01T12:07:32;0.68;;;0.60;;
40176;SDS011;31511;46.176;9.874;2022-08-01T12:10:18;1.02;;;0.45;;
40176;SDS011;31511;46.176;9.874;2022-08-01T12:13:05;1.08;;;0.80;;
40176;SDS011;31511;46.176;9.874;2022-08-01T12:15:50;0.75;;;0.47;;
40176;SDS011;31511;46.176;9.874;2022-08-01T12:18:38;3.72;;;0.70;;
40176;SDS011;31511;46.176;9.874;2022-08-01T12:21:25;2.20;;;0.93;;
40176;SDS011;31511;46.176;9.874;2022-08-01T12:24:12;2.15;;;0.60;;
40176;SDS011;31511;46.176;9.874;2022-08-01T12:26:58;0.95;;;0.50;;
40176;SDS011;31511;46.176;9.874;2022-08-01T12:29:42;1.52;;;0.60;;
40176;SDS011;31511;46.176;9.874;2022-08-01T12:32:29;2.13;;;0.70;;
40176;SDS011;31511;46.176;9.874;2022-08-01T12:35:19;2.58;;;0.60;;
40176;SDS011;31511;46.176;9.874;2022-08-01T12:38:16;4.78;;;0.63;;
40176;SDS011;31511;46.176;9.874;2022-08-01T12:41:01;0.93;;;0.43;;
40176;SDS011;31511;46.176;9.874;2022-08-01T12:43:47;1.67;;;0.70;;
40176;SDS011;31511;46.176;9.874;2022-08-01T12:46:32;2.15;;;0.50;;
40176;SDS011;31511;46.176;9.874;2022-08-01T12:49:17;1.63;;;0.70;;
40176;SDS011;31511;46.176;9.874;2022-08-01T12:52:02;0.70;;;0.50;;
40176;SDS011;31511;46.176;9.874;2022-08-01T12:55:00;2.75;;;0.80;;
40176;SDS011;31511;46.176;9.874;2022-08-01T12:57:46;0.93;;;0.70;;
40176;SDS011;31511;46.176;9.874;2022-08-01T13:00:35;1.52;;;0.77;;
40176;SDS011;31511;46.176;9.874;2022-08-01T13:03:21;3.15;;;0.80;;
40176;SDS011;31511;46.176;9.874;2022-08-01T13:06:10;2.28;;;0.50;;
40176;SDS011;31511;46.176;9.874;2022-08-01T13:09:05;2.55;;;0.75;;
40176;SDS011;31511;46.176;9.874;2022-08-01T13:11:50;1.98;;;0.95;;
40176;SDS011;31511;46.176;9.874;2022-08-01T13:14:36;2.40;;;0.70;;
40176;SDS011;31511;46.176;9.874;2022-08-01T13:17:34;2.08;;;0.88;;
40176;SDS011;31511;46.176;9.874;2022-08-01T13:20:30;3.05;;;0.80;;
40176;SDS011;31511;46.176;9.874;2022-08-01T13:23:16;1.02;;;0.50;;
40176;SDS011;31511;46.176;9.874;2022-08-01T13:26:01;1.58;;;0.70;;
40176;SDS011;31511;46.176;9.874;2022-08-01T13:28:45;1.58;;;0.80;;
40176;SDS011;31511;46.176;9.874;2022-08-01T13:31:36;1.10;;;0.65;;
40176;SDS011;31511;46.176;9.874;2022-08-01T13:34:31;0.98;;;0.77;;
40176;SDS011;31511;46.176;9.874;2022-08-01T13:37:17;1.38;;;0.77;;
40176;SDS011;31511;46.176;9.874;2022-08-01T13:40:02;1.98;;;0.70;;
40176;SDS011;31511;46.176;9.874;2022-08-01T13:42:47;1.48;;;0.60;;
40176;SDS011;31511;46.176;9.874;2022-08-01T13:45:33;3.70;;;1.00;;
40176;SDS011;31511;46.176;9.874;2022-08-01T13:48:19;1.35;;;0.90;;
40176;SDS011;31511;46.176;9.874;2022-08-01T13:51:05;3.22;;;0.70;;
40176;SDS011;31511;46.176;9.874;2022-08-01T13:53:50;1.15;;;0.60;;
40176;SDS011;31511;46.176;9.874;2022-08-01T13:56:35;2.97;;;0.93;;
40176;SDS011;31511;46.176;9.874;2022-08-01T13:59:20;2.95;;;1.15;;
40176;SDS011;31511;46.176;9.874;2022-08-01T14:02:06;0.73;;;0.57;;
40176;SDS011;31511;46.176;9.874;2022-08-01T14:04:51;0.95;;;0.68;;
40176;SDS011;31511;46.176;9.874;2022-08-01T14:07:36;2.33;;;1.02;;
40176;SDS011;31511;46.176;9.874;2022-08-01T14:10:23;1.05;;;0.55;;
40176;SDS011;31511;46.176;9.874;2022-08-01T14:13:09;0.85;;;0.73;;
40176;SDS011;31511;46.176;9.874;2022-08-01T14:15:54;1.20;;;0.70;;
40176;SDS011;31511;46.176;9.874;2022-08-01T14:18:39;1.10;;;0.60;;
40176;SDS011;31511;46.176;9.874;2022-08-01T14:21:25;1.38;;;0.57;;
40176;SDS011;31511;46.176;9.874;2022-08-01T14:24:12;0.80;;;0.70;;
40176;SDS011;31511;46.176;9.874;2022-08-01T14:26:57;1.48;;;0.70;;
40176;SDS011;31511;46.176;9.874;2022-08-01T14:29:42;0.90;;;0.70;;
40176;SDS011;31511;46.176;9.874;2022-08-01T14:32:30;1.58;;;0.60;;
40176;SDS011;31511;46.176;9.874;2022-08-01T14:35:16;1.00;;;0.65;;
40176;SDS011;31511;46.176;9.874;2022-08-01T14:38:01;3.78;;;0.70;;
40176;SDS011;31511;46.176;9.874;2022-08-01T14:40:46;1.65;;;1.08;;
40176;SDS011;31511;46.176;9.874;2022-08-01T14:43:34;1.85;;;0.70;;
40176;SDS011;31511;46.176;9.874;2022-08-01T14:46:20;1.65;;;0.90;;
40176;SDS011;31511;46.176;9.874;2022-08-01T14:49:06;2.63;;;0.60;;
40176;SDS011;31511;46.176;9.874;2022-08-01T14:51:51;1.60;;;0.60;;
40176;SDS011;31511;46.176;9.874;2022-08-01T14:54:35;0.95;;;0.55;;
40176;SDS011;31511;46.176;9.874;2022-08-01T14:57:21;0.70;;;0.70;;
40176;SDS011;31511;46.176;9.874;2022-08-01T15:00:08;0.85;;;0.70;;
40176;SDS011;31511;46.176;9.874;2022-08-01T15:02:56;1.50;;;0.80;;
40176;SDS011;31511;46.176;9.874;2022-08-01T15:05:41;3.20;;;0.85;;
40176;SDS011;31511;46.176;9.874;2022-08-01T15:08:27;0.95;;;0.73;;
40176;SDS011;31511;46.176;9.874;2022-08-01T15:11:15;0.80;;;0.50;;
40176;SDS011;31511;46.176;9.874;2022-08-01T15:14:00;1.42;;;0.75;;
40176;SDS011;31511;46.176;9.874;2022-08-01T15:17:03;6.63;;;1.10;;
40176;SDS011;31511;46.176;9.874;2022-08-01T15:19:50;1.98;;;0.90;;
40176;SDS011;31511;46.176;9.874;2022-08-01T15:22:36;1.80;;;0.70;;
40176;SDS011;31511;46.176;9.874;2022-08-01T15:25:22;1.17;;;0.85;;
40176;SDS011;31511;46.176;9.874;2022-08-01T15:28:09;1.40;;;0.75;;
40176;SDS011;31511;46.176;9.874;2022-08-01T15:30:54;0.60;;;0.60;;
40176;SDS011;31511;46.176;9.874;2022-08-01T15:33:38;2.42;;;0.60;;
40176;SDS011;31511;46.176;9.874;2022-08-01T15:36:25;1.48;;;0.77;;
40176;SDS011;31511;46.176;9.874;2022-08-01T15:39:12;1.88;;;0.70;;
40176;SDS011;31511;46.176;9.874;2022-08-01T15:42:02;2.08;;;0.90;;
40176;SDS011;31511;46.176;9.874;2022-08-01T15:44:48;1.27;;;0.80;;
40176;SDS011;31511;46.176;9.874;2022-08-01T15:47:33;2.08;;;0.90;;
40176;SDS011;31511;46.176;9.874;2022-08-01T15:50:19;1.30;;;0.85;;
40176;SDS011;31511;46.176;9.874;2022-08-01T15:53:05;0.70;;;0.60;;
40176;SDS011;31511;46.176;9.874;2022-08-01T15:55:50;4.68;;;0.77;;
40176;SDS011;31511;46.176;9.874;2022-08-01T15:58:35;2.95;;;0.60;;
40176;SDS011;31511;46.176;9.874;2022-08-01T16:01:19;1.95;;;0.80;;
40176;SDS011;31511;46.176;9.874;2022-08-01T16:04:04;2.03;;;0.85;;
40176;SDS011;31511;46.176;9.874;2022-08-01T16:06:49;1.15;;;0.63;;
40176;SDS011;31511;46.176;9.874;2022-08-01T16:09:34;3.70;;;0.60;;
40176;SDS011;31511;46.176;9.874;2022-08-01T16:12:20;1.42;;;1.00;;
40176;SDS011;31511;46.176;9.874;2022-08-01T16:15:06;1.60;;;1.10;;
40176;SDS011;31511;46.176;9.874;2022-08-01T16:17:52;0.82;;;0.70;;
40176;SDS011;31511;46.176;9.874;2022-08-01T16:20:37;2.28;;;0.70;;
40176;SDS011;31511;46.176;9.874;2022-08-01T16:23:23;0.95;;;0.70;;
40176;SDS011;31511;46.176;9.874;2022-08-01T16:26:10;1.85;;;0.98;;
40176;SDS011;31511;46.176;9.874;2022-08-01T16:28:55;1.42;;;1.10;;
40176;SDS011;31511;46.176;9.874;2022-08-01T16:31:40;1.52;;;0.77;;
40176;SDS011;31511;46.176;9.874;2022-08-01T16:34:27;1.13;;;1.00;;
40176;SDS011;31511;46.176;9.874;2022-08-01T16:37:13;2.83;;;0.90;;
40176;SDS011;31511;46.176;9.874;2022-08-01T16:39:59;0.65;;;0.60;;
40176;SDS011;31511;46.176;9.874;2022-08-01T16:42:43;1.17;;;0.80;;
40176;SDS011;31511;46.176;9.874;2022-08-01T16:45:30;0.93;;;0.82;;
40176;SDS011;31511;46.176;9.874;2022-08-01T16:48:15;1.13;;;0.80;;
40176;SDS011;31511;46.176;9.874;2022-08-01T16:51:04;2.97;;;1.20;;
40176;SDS011;31511;46.176;9.874;2022-08-01T16:53:49;2.63;;;0.90;;
40176;SDS011;31511;46.176;9.874;2022-08-01T16:56:33;0.77;;;0.77;;
40176;SDS011;31511;46.176;9.874;2022-08-01T16:59:19;1.35;;;0.90;;
40176;SDS011;31511;46.176;9.874;2022-08-01T17:02:05;1.48;;;1.02;;
40176;SDS011;31511;46.176;9.874;2022-08-01T17:04:49;1.92;;;0.93;;